Alta, California
Current Conditions -  °F | °C
As of 7:52 AM on Monday 22 Dec 2014 (Local Time) from KBLU Reporting Station
Clear Clear  
Wind Chill: 46°   Ceiling: Unl
Heat Index: 46°   Visibility: 10mi
Dew Point: 35°   Wind: 3mph
Humidity: 66%   Direction: 30°NNE
Pressure: 30.32"   Gusts: NA
Location:  39.21°N, 120.81°W
Report Text: KBLU 221552Z AUTO 03003KT 10SM CLR 08/02 A3032 RMK AO2 SLP240 T00780017
Loading
Personal Weather Stations






























Interactive Weather Map New forecast layout! Learn more

10-Day Weather Forecast

Advertisements
Track Severe Weather on mobile